Time;durP1;ratioP1;P1;durP2;ratioP2;P2;SDS_P1;SDS_P2;PMS_P1;PMS_P2;Temp;Humidity;BMP_temperature;BMP_pressure;BME280_temperature;BME280_humidity;BME280_pressure;Samples;Min_cycle;Max_cycle;Signal;HPM_P1;HPM_P2
2022/11/10 00:01:45;;;;;;;;;;;;;;;11.21;73.58;100873.00;5053287;28;19924;-32
2022/11/10 00:04:10;;;;;;;;;;;;;;;11.18;73.46;100881.81;5053159;28;19924;-32
2022/11/10 00:06:35;;;;;;;;;;;;;;;11.14;73.40;100886.25;5060785;28;20413;-33
2022/11/10 00:09:01;;;;;;;;;;;;;;;11.11;73.40;100880.97;5029420;28;20486;-34
2022/11/10 00:11:26;;;;;;;;;;;;;;;11.11;73.35;100891.53;5053061;28;19923;-34
2022/11/10 00:19:19;;;;;;;;;;;;;;;11.02;73.64;100896.91;5053246;28;20004;-32
2022/11/10 00:21:44;;;;;;;;;;;;;;;10.99;73.43;100900.44;5036400;28;20015;-33
2022/11/10 00:24:09;;;;;;;;;;;;;;;10.98;73.64;100905.72;5052486;28;19917;-33
2022/11/10 00:26:34;;;;;;;;;;;;;;;10.95;73.76;100911.91;5053732;28;19923;-32
2022/11/10 00:29:00;;;;;;;;;;;;;;;10.92;73.67;100906.66;5052263;28;19913;-33
2022/11/10 00:31:27;;;;;;;;;;;;;;;10.92;73.69;100917.19;5050355;28;20400;-32
2022/11/10 00:33:52;;;;;;;;;;;;;;;10.90;73.77;100911.03;5050468;28;20391;-32
2022/11/10 00:36:17;;;;;;;;;;;;;;;10.87;73.59;100917.22;5052726;28;19982;-32
2022/11/10 00:38:42;;;;;;;;;;;;;;;10.85;73.51;100916.38;5053017;28;19924;-32
2022/11/10 00:41:08;;;;;;;;;;;;;;;10.85;73.52;100918.13;5053790;28;19943;-33
2022/11/10 00:43:33;;;;;;;;;;;;;;;10.82;73.48;100924.31;5041032;28;19917;-33
2022/11/10 00:45:58;;;;;;;;;;;;;;;10.81;73.66;100930.47;5058888;28;20350;-33
2022/11/10 00:48:24;;;;;;;;;;;;;;;10.78;73.71;100919.94;5054485;28;20028;-32
2022/11/10 00:50:49;;;;;;;;;;;;;;;10.75;73.77;100919.94;5049185;28;20412;-34
2022/11/10 00:53:14;;;;;;;;;;;;;;;10.73;73.79;100925.22;5048862;28;19912;-34
2022/11/10 00:55:40;;;;;;;;;;;;;;;10.71;73.86;100934.03;5040953;28;19936;-33
2022/11/10 00:58:05;;;;;;;;;;;;;;;10.69;73.84;100930.53;5054562;28;19921;-32
2022/11/10 01:00:30;;;;;;;;;;;;;;;10.68;73.61;100939.31;5031415;28;20459;-33
2022/11/10 01:02:55;;;;;;;;;;;;;;;10.64;73.92;100934.06;5036519;28;19986;-33
2022/11/10 01:05:21;;;;;;;;;;;;;;;10.63;73.76;100940.22;5035587;28;19921;-33
2022/11/10 01:07:46;;;;;;;;;;;;;;;10.61;74.00;100943.75;5054727;28;19916;-32
2022/11/10 01:10:11;;;;;;;;;;;;;;;10.59;73.67;100949.03;5053455;28;19978;-35
2022/11/10 01:12:36;;;;;;;;;;;;;;;10.57;73.78;100942.88;5053692;28;19917;-35
2022/11/10 01:15:02;;;;;;;;;;;;;;;10.55;74.02;100949.94;5055428;28;19921;-32
2022/11/10 01:17:28;;;;;;;;;;;;;;;10.54;73.90;100955.22;5035286;28;20378;-32
2022/11/10 01:19:53;;;;;;;;;;;;;;;10.51;73.68;100951.69;5043912;28;19917;-32
2022/11/10 01:22:19;;;;;;;;;;;;;;;10.49;73.87;100965.78;5052448;28;20007;-34
2022/11/10 01:24:44;;;;;;;;;;;;;;;10.47;73.83;100964.94;5050714;28;19921;-32
2022/11/10 01:27:09;;;;;;;;;;;;;;;10.44;73.91;100965.75;5047674;28;19916;-32
2022/11/10 01:29:34;;;;;;;;;;;;;;;10.43;74.04;100963.16;5051489;28;19959;-33
2022/11/10 01:31:59;;;;;;;;;;;;;;;10.40;73.92;100966.66;5060106;28;19960;-33
2022/11/10 01:34:25;;;;;;;;;;;;;;;10.39;74.24;100976.34;5051819;28;19916;-33
2022/11/10 01:36:50;;;;;;;;;;;;;;;10.37;74.19;100972.81;5053953;28;19913;-33
2022/11/10 01:39:15;;;;;;;;;;;;;;;10.35;73.87;100985.16;5052734;28;19936;-33
2022/11/10 01:41:40;;;;;;;;;;;;;;;10.34;73.92;100993.91;5047940;28;20309;-32
2022/11/10 01:44:13;;;;;;;;;;;;;;;10.33;74.08;100992.19;5047459;28;19916;-33
2022/11/10 01:46:38;;;;;;;;;;;;;;;10.33;73.96;101001.84;5051321;28;20035;-33
2022/11/10 01:49:03;;;;;;;;;;;;;;;10.31;73.97;101001.88;5053421;28;20395;-32
2022/11/10 01:51:30;;;;;;;;;;;;;;;10.30;74.16;101007.13;5051840;28;20396;-33
2022/11/10 01:53:57;;;;;;;;;;;;;;;10.29;74.26;101006.25;5029364;28;19917;-33
2022/11/10 01:56:22;;;;;;;;;;;;;;;10.26;73.84;100996.59;5048313;28;19923;-33
2022/11/10 01:58:51;;;;;;;;;;;;;;;10.24;73.96;100998.34;5048849;28;19913;-33
2022/11/10 02:01:16;;;;;;;;;;;;;;;10.22;73.54;100989.59;5053317;28;19924;-30
2022/11/10 02:03:47;;;;;;;;;;;;;;;10.21;73.58;100997.50;5044006;28;19913;-33
2022/11/10 02:06:12;;;;;;;;;;;;;;;10.20;73.67;100995.75;5053607;28;19923;-33
2022/11/10 02:08:37;;;;;;;;;;;;;;;10.18;73.48;100992.22;5036381;28;19917;-33
2022/11/10 02:11:03;;;;;;;;;;;;;;;10.15;73.59;101008.94;5037373;28;20011;-33
2022/11/10 02:13:30;;;;;;;;;;;;;;;10.13;73.48;101013.31;5052641;28;19924;-33
2022/11/10 02:15:56;;;;;;;;;;;;;;;10.11;73.32;101005.41;5021835;28;20063;-34
2022/11/10 02:18:25;;;;;;;;;;;;;;;10.08;73.35;101002.78;5039317;28;20059;-34
2022/11/10 02:20:50;;;;;;;;;;;;;;;10.06;73.69;101015.06;5056146;28;19913;-31
2022/11/10 02:23:28;;;;;;;;;;;;;;;10.05;73.75;101010.69;5048107;28;20048;-31
2022/11/10 02:25:53;;;;;;;;;;;;;;;10.02;73.75;101005.44;5052045;28;20035;-32
2022/11/10 02:28:18;;;;;;;;;;;;;;;10.00;73.74;101010.69;5050996;28;19967;-32
2022/11/10 02:30:45;;;;;;;;;;;;;;;9.99;73.54;101008.06;5024501;28;20007;-32
2022/11/10 02:33:11;;;;;;;;;;;;;;;9.96;73.73;101010.69;5041122;28;19924;-32
2022/11/10 02:35:36;;;;;;;;;;;;;;;9.91;73.46;101008.09;5026011;28;19920;-32
2022/11/10 02:38:01;;;;;;;;;;;;;;;9.88;73.55;101016.00;5052691;28;19939;-32
2022/11/10 02:40:26;;;;;;;;;;;;;;;9.85;73.67;101022.16;5041837;28;19917;-32
2022/11/10 02:42:51;;;;;;;;;;;;;;;9.84;73.81;101033.53;5048003;28;20060;-32
2022/11/10 02:45:17;;;;;;;;;;;;;;;9.82;73.80;101027.41;5048630;28;19924;-32
2022/11/10 02:47:42;;;;;;;;;;;;;;;9.81;73.82;101028.28;5049665;28;20009;-32
2022/11/10 02:50:07;;;;;;;;;;;;;;;9.80;73.96;101028.28;5049996;28;19959;-32
2022/11/10 02:52:32;;;;;;;;;;;;;;;9.77;73.77;101020.38;5049297;28;19916;-32
2022/11/10 02:54:58;;;;;;;;;;;;;;;9.74;73.78;101031.81;5035956;28;19916;-32
2022/11/10 02:57:23;;;;;;;;;;;;;;;9.72;73.91;101031.78;5051605;28;19974;-32
2022/11/10 02:59:48;;;;;;;;;;;;;;;9.69;74.12;101047.59;5021139;28;19978;-32
2022/11/10 03:02:14;;;;;;;;;;;;;;;9.67;74.18;101049.34;5034547;28;19917;-32
2022/11/10 03:04:39;;;;;;;;;;;;;;;9.67;73.86;101053.75;5046549;28;19921;-32
2022/11/10 03:07:05;;;;;;;;;;;;;;;9.63;73.97;101051.09;5033742;28;19917;-32
2022/11/10 03:09:30;;;;;;;;;;;;;;;9.61;74.28;101060.75;5013687;28;19924;-32
2022/11/10 03:11:55;;;;;;;;;;;;;;;9.60;73.96;101059.00;5042743;28;19921;-32
2022/11/10 03:14:20;;;;;;;;;;;;;;;9.57;74.08;101063.41;5043921;28;19921;-32
2022/11/10 03:16:46;;;;;;;;;;;;;;;9.55;74.34;101071.28;5049329;28;19963;-32
2022/11/10 03:19:11;;;;;;;;;;;;;;;9.54;74.34;101072.13;5049327;28;20540;-32
2022/11/10 03:21:36;;;;;;;;;;;;;;;9.52;74.57;101071.28;5051131;28;20297;-32
2022/11/10 03:24:02;;;;;;;;;;;;;;;9.52;74.79;101080.91;5062502;28;19990;-32
2022/11/10 03:26:28;;;;;;;;;;;;;;;9.51;74.41;101082.69;5045896;28;20386;-32
2022/11/10 03:28:54;;;;;;;;;;;;;;;9.50;74.63;101083.53;5048484;28;19917;-32
2022/11/10 03:31:19;;;;;;;;;;;;;;;9.50;74.41;101094.09;5049046;28;20369;-32
2022/11/10 03:33:44;;;;;;;;;;;;;;;9.49;74.16;101095.84;5044083;28;19962;-32
2022/11/10 03:36:09;;;;;;;;;;;;;;;9.49;74.17;101106.38;5047103;28;19917;-32
2022/11/10 03:38:35;;;;;;;;;;;;;;;9.48;74.23;101104.59;5046935;28;19927;-32
2022/11/10 03:41:00;;;;;;;;;;;;;;;9.48;74.14;101107.25;5045060;28;20337;-32
2022/11/10 03:43:25;;;;;;;;;;;;;;;9.47;74.17;101109.91;5047974;28;20389;-32
2022/11/10 03:45:50;;;;;;;;;;;;;;;9.46;74.28;101108.13;5049117;28;20331;-32
2022/11/10 03:48:16;;;;;;;;;;;;;;;9.44;74.04;101105.47;5047061;28;19924;-32
2022/11/10 03:50:41;;;;;;;;;;;;;;;9.43;73.99;101121.25;5046293;28;20324;-32
2022/11/10 03:53:06;;;;;;;;;;;;;;;9.40;74.22;101124.78;5048819;28;19925;-33
2022/11/10 03:55:32;;;;;;;;;;;;;;;9.39;74.11;101123.03;5048516;28;19968;-33
2022/11/10 03:58:02;;;;;;;;;;;;;;;9.38;74.06;101134.44;5048775;28;19997;-32
2022/11/10 04:00:28;;;;;;;;;;;;;;;9.36;73.74;101134.44;5052697;28;19974;-32
2022/11/10 04:02:53;;;;;;;;;;;;;;;9.35;73.81;101132.69;5053456;28;19921;-32
2022/11/10 04:10:46;;;;;;;;;;;;;;;9.29;73.82;101143.19;5048259;28;20396;-32
2022/11/10 04:15:55;;;;;;;;;;;;;;;9.27;73.77;101151.94;5051508;28;20331;-33
2022/11/10 04:18:23;;;;;;;;;;;;;;;9.25;73.85;101151.94;5040343;28;19924;-33
2022/11/10 04:20:48;;;;;;;;;;;;;;;9.24;74.01;101160.72;5053801;28;19916;-33
2022/11/10 04:23:26;;;;;;;;;;;;;;;9.23;73.84;101166.84;5024600;28;19939;-33
2022/11/10 04:28:43;;;;;;;;;;;;;;;9.18;73.77;101160.69;5047977;28;19928;-32
2022/11/10 04:31:08;;;;;;;;;;;;;;;9.17;73.69;101169.44;5045090;28;19917;-32
2022/11/10 04:33:34;;;;;;;;;;;;;;;9.15;73.98;101171.19;5056979;28;19916;-32
2022/11/10 04:35:59;;;;;;;;;;;;;;;9.15;73.62;101176.44;5054477;28;20369;-33
2022/11/10 04:38:24;;;;;;;;;;;;;;;9.10;73.88;101174.69;5054100;28;19919;-33
2022/11/10 04:40:50;;;;;;;;;;;;;;;9.09;73.90;101175.56;5051324;28;19916;-33
2022/11/10 04:43:15;;;;;;;;;;;;;;;9.08;73.62;101181.69;5032456;28;19916;-32
2022/11/10 04:45:41;;;;;;;;;;;;;;;9.05;73.62;101181.69;5043388;28;19970;-33
2022/11/10 04:48:06;;;;;;;;;;;;;;;9.04;73.70;101185.16;5015770;28;19951;-33
2022/11/10 04:50:32;;;;;;;;;;;;;;;9.03;73.63;101196.56;5049595;28;20460;-33
2022/11/10 04:52:57;;;;;;;;;;;;;;;9.00;73.68;101196.53;5044350;28;20011;-33
2022/11/10 04:55:22;;;;;;;;;;;;;;;8.98;73.68;101203.56;5053009;28;20511;-33
2022/11/10 04:57:47;;;;;;;;;;;;;;;8.97;73.41;101209.69;5044427;28;20347;-32
2022/11/10 05:00:13;;;;;;;;;;;;;;;8.96;73.58;101207.91;5050921;28;20390;-33
2022/11/10 05:02:38;;;;;;;;;;;;;;;8.91;73.29;101205.28;5033723;28;20342;-33
2022/11/10 05:05:03;;;;;;;;;;;;;;;8.91;73.32;101212.28;5049938;28;20408;-32
2022/11/10 05:07:28;;;;;;;;;;;;;;;8.90;72.98;101210.53;5042692;28;19952;-31
2022/11/10 05:09:54;;;;;;;;;;;;;;;8.87;73.11;101218.41;5050891;28;19921;-31
2022/11/10 05:12:19;;;;;;;;;;;;;;;8.84;72.93;101209.59;5052152;28;19927;-31
2022/11/10 05:14:44;;;;;;;;;;;;;;;8.81;72.99;101204.31;5053346;28;19967;-31
2022/11/10 05:17:09;;;;;;;;;;;;;;;8.79;72.96;101223.59;5053488;28;20000;-31
2022/11/10 05:19:35;;;;;;;;;;;;;;;8.75;73.02;101219.19;5052245;28;20330;-31
2022/11/10 05:22:00;;;;;;;;;;;;;;;8.71;72.84;101223.53;5049071;28;19963;-31
2022/11/10 05:24:25;;;;;;;;;;;;;;;8.70;73.25;101232.28;5043309;28;19924;-31
2022/11/10 05:26:50;;;;;;;;;;;;;;;8.66;73.04;101231.38;5052737;28;19921;-31
2022/11/10 05:29:16;;;;;;;;;;;;;;;8.64;73.10;101248.03;5036950;28;19921;-33
2022/11/10 05:31:41;;;;;;;;;;;;;;;8.60;73.27;101247.09;5054395;28;19917;-33
2022/11/10 05:34:06;;;;;;;;;;;;;;;8.59;73.27;101245.34;5054171;28;19949;-33
2022/11/10 05:36:31;;;;;;;;;;;;;;;8.58;73.23;101246.22;5054037;28;19924;-33
2022/11/10 05:38:56;;;;;;;;;;;;;;;8.55;73.22;101254.09;5051841;28;19916;-33
2022/11/10 05:41:22;;;;;;;;;;;;;;;8.51;73.27;101258.41;5048354;28;20003;-33
2022/11/10 05:43:49;;;;;;;;;;;;;;;8.50;73.25;101267.16;5035404;28;19947;-33
2022/11/10 05:46:15;;;;;;;;;;;;;;;8.47;73.15;101278.53;5018891;28;19925;-33
2022/11/10 05:48:40;;;;;;;;;;;;;;;8.45;73.23;101276.75;5053535;28;19917;-33
2022/11/10 05:51:06;;;;;;;;;;;;;;;8.42;73.14;101277.63;5053345;28;20340;-33
2022/11/10 05:53:31;;;;;;;;;;;;;;;8.40;73.15;101281.97;5052627;28;19947;-33
2022/11/10 05:55:56;;;;;;;;;;;;;;;8.37;73.27;101289.81;5051948;28;19921;-33
2022/11/10 05:58:21;;;;;;;;;;;;;;;8.37;73.17;101291.56;5036094;28;20431;-33
2022/11/10 06:00:47;;;;;;;;;;;;;;;8.36;73.19;101300.34;5053623;28;20329;-33
2022/11/10 06:03:13;;;;;;;;;;;;;;;8.31;73.38;101314.28;5054964;28;20237;-34
2022/11/10 06:05:38;;;;;;;;;;;;;;;8.29;73.24;101315.13;5053051;28;20412;-33
2022/11/10 06:08:04;;;;;;;;;;;;;;;8.28;73.35;101316.91;5033823;28;19996;-33
2022/11/10 06:10:30;;;;;;;;;;;;;;;8.27;73.23;101324.78;5043466;28;19971;-33
2022/11/10 06:12:56;;;;;;;;;;;;;;;8.25;73.25;101326.47;5033562;28;19917;-33
2022/11/10 06:15:21;;;;;;;;;;;;;;;8.24;73.25;101329.97;5041077;28;20285;-33
2022/11/10 06:17:46;;;;;;;;;;;;;;;8.21;73.29;101336.94;5049713;28;20328;-33
2022/11/10 06:20:12;;;;;;;;;;;;;;;8.20;73.35;101342.19;5049550;28;19924;-32
2022/11/10 06:22:37;;;;;;;;;;;;;;;8.17;73.37;101352.69;5026291;28;19920;-31
2022/11/10 06:25:03;;;;;;;;;;;;;;;8.14;73.46;101364.03;5053331;28;19913;-31
2022/11/10 06:27:28;;;;;;;;;;;;;;;8.12;73.46;101365.75;5052965;28;19925;-31
2022/11/10 06:29:53;;;;;;;;;;;;;;;8.11;73.52;101364.00;5034996;28;19921;-31
2022/11/10 06:32:18;;;;;;;;;;;;;;;8.09;73.39;101370.97;5052079;28;20439;-31
2022/11/10 06:34:44;;;;;;;;;;;;;;;8.07;73.40;101378.84;5051280;28;20019;-31
2022/11/10 06:37:09;;;;;;;;;;;;;;;8.08;73.51;101392.88;5036025;28;20004;-31
2022/11/10 06:39:34;;;;;;;;;;;;;;;8.05;73.43;101400.69;5050882;28;19924;-31
2022/11/10 06:42:00;;;;;;;;;;;;;;;8.03;73.52;101398.06;5037303;28;19913;-31
2022/11/10 06:44:25;;;;;;;;;;;;;;;8.01;73.55;101398.91;5032133;28;19920;-31
2022/11/10 06:46:51;;;;;;;;;;;;;;;8.00;73.57;101410.28;5032319;28;19913;-33
2022/11/10 06:49:17;;;;;;;;;;;;;;;7.99;73.44;101408.50;5045714;28;19921;-33
2022/11/10 06:51:43;;;;;;;;;;;;;;;7.97;73.63;101413.72;5033187;28;19920;-35
2022/11/10 06:54:08;;;;;;;;;;;;;;;7.96;73.55;101427.72;5039407;28;19917;-33
2022/11/10 06:56:34;;;;;;;;;;;;;;;7.96;73.64;101425.09;5052460;28;19921;-32
2022/11/10 06:59:00;;;;;;;;;;;;;;;7.95;73.50;101423.34;5052734;28;19920;-33
2022/11/10 07:01:25;;;;;;;;;;;;;;;7.93;73.58;101428.56;5052004;28;19920;-33
2022/11/10 07:03:53;;;;;;;;;;;;;;;7.93;73.47;101419.78;5034888;28;19963;-31
2022/11/10 07:06:19;;;;;;;;;;;;;;;7.93;73.78;101432.94;5053242;28;19920;-31
2022/11/10 07:08:45;;;;;;;;;;;;;;;7.91;73.69;101434.66;5054217;28;20304;-33
2022/11/10 07:11:11;;;;;;;;;;;;;;;7.91;73.71;101439.94;5054017;28;19944;-32
2022/11/10 07:13:38;;;;;;;;;;;;;;;7.91;73.65;101439.94;5056119;28;19959;-31
2022/11/10 07:16:05;;;;;;;;;;;;;;;7.91;73.88;101450.44;5037464;28;19913;-31
2022/11/10 07:18:32;;;;;;;;;;;;;;;7.91;73.97;101453.06;5056263;28;20368;-31
2022/11/10 07:21:00;;;;;;;;;;;;;;;7.91;74.03;101459.16;5039252;28;19920;-31
2022/11/10 07:23:26;;;;;;;;;;;;;;;7.91;74.13;101461.81;5049064;28;19920;-31
2022/11/10 07:25:51;;;;;;;;;;;;;;;7.93;74.12;101480.22;5058048;28;19917;-31
2022/11/10 07:28:16;;;;;;;;;;;;;;;7.94;74.18;101480.25;5062456;28;19968;-32
2022/11/10 07:30:46;;;;;;;;;;;;;;;7.96;74.33;101490.78;5061392;28;19921;-33
2022/11/10 07:33:12;;;;;;;;;;;;;;;7.96;74.55;101485.50;5027834;28;19917;-33
2022/11/10 07:35:38;;;;;;;;;;;;;;;7.98;74.54;101489.06;5056355;28;19917;-32
2022/11/10 07:38:05;;;;;;;;;;;;;;;7.99;74.56;101490.81;5055789;28;19936;-32
2022/11/10 07:40:31;;;;;;;;;;;;;;;8.01;74.52;101499.63;5042637;28;19916;-32
2022/11/10 07:42:56;;;;;;;;;;;;;;;8.03;74.64;101512.75;5057264;28;19965;-32
2022/11/10 07:45:23;;;;;;;;;;;;;;;8.04;74.82;101510.16;5056768;28;20378;-32
2022/11/10 07:47:49;;;;;;;;;;;;;;;8.07;74.83;101511.97;5042157;28;20362;-32
2022/11/10 07:50:15;;;;;;;;;;;;;;;8.07;74.86;101497.06;5058401;28;19928;-33
2022/11/10 07:52:41;;;;;;;;;;;;;;;8.12;74.92;101512.00;5061176;28;20382;-33
2022/11/10 07:55:06;;;;;;;;;;;;;;;8.14;74.85;101513.78;5060418;28;19917;-33
2022/11/10 07:57:32;;;;;;;;;;;;;;;8.16;74.78;101521.72;5059246;28;20399;-33
2022/11/10 07:59:57;;;;;;;;;;;;;;;8.20;74.69;101520.88;5062138;28;20328;-33
2022/11/10 08:02:22;;;;;;;;;;;;;;;8.25;74.76;101526.22;5058912;28;19976;-34
2022/11/10 08:04:48;;;;;;;;;;;;;;;8.28;74.96;101540.31;5051689;28;20325;-33
2022/11/10 08:07:14;;;;;;;;;;;;;;;8.32;74.87;101535.97;5058607;28;20281;-33
2022/11/10 08:09:42;;;;;;;;;;;;;;;8.37;75.05;101541.28;5034161;28;20168;-33
2022/11/10 08:12:07;;;;;;;;;;;;;;;8.42;75.08;101545.75;5034999;28;19920;-33
2022/11/10 08:14:33;;;;;;;;;;;;;;;8.46;75.30;101549.28;5056391;28;20012;-33
2022/11/10 08:16:58;;;;;;;;;;;;;;;8.52;76.12;101565.16;5056129;28;19916;-33
2022/11/10 08:19:23;;;;;;;;;;;;;;;8.57;76.21;101560.88;5055414;28;19952;-33
2022/11/10 08:21:49;;;;;;;;;;;;;;;8.64;76.06;101558.34;5054419;28;20561;-33
2022/11/10 08:24:14;;;;;;;;;;;;;;;8.69;75.92;101564.53;5055159;28;20384;-33
2022/11/10 08:26:41;;;;;;;;;;;;;;;8.73;75.79;101563.69;5035852;28;20394;-34
2022/11/10 08:29:07;;;;;;;;;;;;;;;8.79;76.13;101571.69;5036612;28;19948;-33
2022/11/10 08:31:33;;;;;;;;;;;;;;;8.84;75.88;101574.38;5036710;28;19967;-33
2022/11/10 08:33:58;;;;;;;;;;;;;;;8.89;76.10;101577.03;5037094;28;19956;-33
2022/11/10 08:36:24;;;;;;;;;;;;;;;8.93;75.93;101585.00;5052623;28;19950;-33
2022/11/10 08:38:49;;;;;;;;;;;;;;;8.99;75.97;101586.84;5051247;28;20163;-33
2022/11/10 08:41:15;;;;;;;;;;;;;;;9.02;76.01;101586.88;5053517;28;19951;-33
2022/11/10 08:43:40;;;;;;;;;;;;;;;9.07;76.05;101595.69;5042305;28;19964;-31
2022/11/10 08:46:06;;;;;;;;;;;;;;;9.11;76.01;101600.13;5054056;28;19920;-33
2022/11/10 08:48:31;;;;;;;;;;;;;;;9.17;76.68;101595.81;5054263;28;19913;-33
2022/11/10 08:50:58;;;;;;;;;;;;;;;9.22;77.29;101602.91;5053301;28;19928;-33
2022/11/10 08:53:23;;;;;;;;;;;;;;;9.27;77.39;101602.06;5046909;28;20013;-33
2022/11/10 08:55:49;;;;;;;;;;;;;;;9.31;77.25;101610.00;5054595;28;19956;-33
2022/11/10 08:58:15;;;;;;;;;;;;;;;9.35;76.85;101611.81;5053847;28;20111;-33
2022/11/10 09:00:41;;;;;;;;;;;;;;;9.41;77.05;101616.28;5054080;28;20297;-33
2022/11/10 09:03:13;;;;;;;;;;;;;;;9.47;76.87;101612.81;5035698;28;19916;-32
2022/11/10 09:05:39;;;;;;;;;;;;;;;9.51;77.31;101627.78;5052427;28;19958;-33
2022/11/10 09:08:04;;;;;;;;;;;;;;;9.55;77.76;101629.59;5053518;28;19912;-33
2022/11/10 09:10:30;;;;;;;;;;;;;;;9.60;77.80;101637.50;5034782;28;19921;-33
2022/11/10 09:12:57;;;;;;;;;;;;;;;9.63;77.59;101637.56;5033927;28;19920;-32
2022/11/10 09:15:22;;;;;;;;;;;;;;;9.67;77.93;101631.44;5033744;28;20462;-33
2022/11/10 09:17:48;;;;;;;;;;;;;;;9.70;76.98;101634.13;5041451;28;19952;-33
2022/11/10 09:20:13;;;;;;;;;;;;;;;9.75;77.60;101644.72;5036798;28;20341;-33
2022/11/10 09:22:38;;;;;;;;;;;;;;;9.79;77.58;101649.13;5036864;28;19916;-30
2022/11/10 09:25:04;;;;;;;;;;;;;;;9.81;77.03;101652.69;5053754;28;19913;-33
2022/11/10 09:27:29;;;;;;;;;;;;;;;9.84;76.97;101652.69;5035668;28;20034;-33
2022/11/10 09:29:55;;;;;;;;;;;;;;;9.89;77.10;101665.91;5052390;28;19929;-33
2022/11/10 09:32:20;;;;;;;;;;;;;;;9.94;78.09;101664.19;5051864;28;19931;-33
2022/11/10 09:34:45;;;;;;;;;;;;;;;9.99;78.01;101661.63;5046451;28;20381;-33
2022/11/10 09:37:10;;;;;;;;;;;;;;;10.05;78.07;101661.69;5053190;28;19917;-33
2022/11/10 09:39:36;;;;;;;;;;;;;;;10.12;78.00;101673.16;5052956;28;19927;-33
2022/11/10 09:42:03;;;;;;;;;;;;;;;10.18;78.70;101661.78;5053228;28;19935;-33
2022/11/10 09:44:30;;;;;;;;;;;;;;;10.26;79.97;101665.34;5034548;28;19916;-33
2022/11/10 09:46:59;;;;;;;;;;;;;;;10.29;78.41;101667.13;5038656;28;19912;-33
2022/11/10 09:49:33;;;;;;;;;;;;;;;10.38;80.06;101673.34;5052418;28;20262;-33
2022/11/10 09:51:59;;;;;;;;;;;;;;;10.44;80.25;101664.63;5051316;28;19912;-33
2022/11/10 09:54:33;;;;;;;;;;;;;;;10.51;80.24;101661.19;5053075;28;20297;-33
2022/11/10 09:57:01;;;;;;;;;;;;;;;10.56;79.57;101655.94;5035151;28;20332;-33
2022/11/10 09:59:31;;;;;;;;;;;;;;;10.61;78.44;101662.13;5051587;28;19924;-33
2022/11/10 10:01:56;;;;;;;;;;;;;;;10.71;78.99;101659.56;5034588;28;19951;-33
2022/11/10 10:04:29;;;;;;;;;;;;;;;10.75;79.93;101659.59;5052436;28;20352;-33
2022/11/10 10:07:06;;;;;;;;;;;;;;;10.81;79.33;101665.78;5035084;28;19936;-34
2022/11/10 10:09:44;;;;;;;;;;;;;;;10.88;79.10;101667.59;5052311;28;20370;-32
2022/11/10 10:12:13;;;;;;;;;;;;;;;10.95;78.98;101660.56;5051587;28;20016;-33
2022/11/10 10:14:41;;;;;;;;;;;;;;;11.00;78.17;101670.28;5022264;28;19924;-32
2022/11/10 10:17:10;;;;;;;;;;;;;;;11.08;78.97;101667.69;5030560;28;19999;-33
2022/11/10 10:19:41;;;;;;;;;;;;;;;11.15;79.51;101680.06;5052388;28;19923;-32
2022/11/10 10:22:12;;;;;;;;;;;;;;;11.20;79.19;101679.19;5051997;28;19913;-33
2022/11/10 10:24:37;;;;;;;;;;;;;;;11.25;79.47;101680.97;5034588;28;19917;-33
2022/11/10 10:27:05;;;;;;;;;;;;;;;11.32;79.56;101676.59;5044144;28;19924;-30
2022/11/10 10:29:31;;;;;;;;;;;;;;;11.39;79.14;101678.38;5040016;28;19967;-30
2022/11/10 10:31:59;;;;;;;;;;;;;;;11.41;78.49;101681.88;5032387;28;19913;-30
2022/11/10 10:34:29;;;;;;;;;;;;;;;11.47;78.16;101677.53;5032866;28;20376;-30
2022/11/10 10:36:54;;;;;;;;;;;;;;;11.54;78.43;101676.66;5033331;28;19928;-30
2022/11/10 10:39:30;;;;;;;;;;;;;;;11.59;78.31;101682.84;5035626;28;19921;-30
2022/11/10 10:41:55;;;;;;;;;;;;;;;11.66;78.33;101689.91;5045835;28;19957;-30
2022/11/10 10:44:21;;;;;;;;;;;;;;;11.75;78.45;101689.06;5034221;28;20151;-30
2022/11/10 10:46:49;;;;;;;;;;;;;;;11.75;77.83;101686.41;5052710;28;19920;-30
2022/11/10 10:49:24;;;;;;;;;;;;;;;11.83;77.98;101691.69;5052063;28;19917;-32
2022/11/10 10:51:51;;;;;;;;;;;;;;;11.87;77.79;101696.09;5034012;28;20163;-33
2022/11/10 10:54:24;;;;;;;;;;;;;;;11.90;77.53;101690.84;5033311;28;19924;-33
2022/11/10 10:56:49;;;;;;;;;;;;;;;11.97;77.71;101685.56;5038655;28;20370;-33
2022/11/10 10:59:18;;;;;;;;;;;;;;;12.02;78.02;101686.44;5032036;28;19968;-32
2022/11/10 11:01:43;;;;;;;;;;;;;;;12.07;77.90;101682.06;5035583;28;20611;-32
2022/11/10 11:04:26;;;;;;;;;;;;;;;12.14;78.14;101682.97;5076405;28;20003;-32
2022/11/10 11:06:59;;;;;;;;;;;;;;;12.19;77.41;101681.19;5069288;28;19916;-32
2022/11/10 11:09:25;;;;;;;;;;;;;;;12.25;77.59;101675.03;5036674;28;19912;-32
2022/11/10 11:12:03;;;;;;;;;;;;;;;12.28;77.48;101677.69;5051781;28;19920;-32
2022/11/10 11:14:29;;;;;;;;;;;;;;;12.33;78.05;101675.91;5056078;28;19920;-32
2022/11/10 11:16:56;;;;;;;;;;;;;;;12.40;77.87;101690.00;5038856;28;19912;-32
2022/11/10 11:19:25;;;;;;;;;;;;;;;12.47;77.91;101688.25;5055833;28;19917;-32
2022/11/10 11:22:03;;;;;;;;;;;;;;;12.50;77.48;101685.63;5054878;28;19916;-32
2022/11/10 11:24:28;;;;;;;;;;;;;;;12.55;77.45;101684.72;5037438;28;19963;-32
2022/11/10 11:26:53;;;;;;;;;;;;;;;12.58;77.15;101694.44;5036865;28;19913;-32
2022/11/10 11:29:25;;;;;;;;;;;;;;;12.61;76.84;101693.53;5034791;28;19940;-32
2022/11/10 11:31:54;;;;;;;;;;;;;;;12.64;76.48;101694.41;5034805;28;19937;-32
2022/11/10 11:34:20;;;;;;;;;;;;;;;12.65;76.31;101696.19;5042154;28;19923;-32
2022/11/10 11:36:50;;;;;;;;;;;;;;;12.68;75.97;101679.41;5046465;28;19917;-32
2022/11/10 11:39:19;;;;;;;;;;;;;;;12.69;75.82;101692.66;5056058;28;19920;-32
2022/11/10 11:41:57;;;;;;;;;;;;;;;12.75;76.28;101698.81;5054448;28;19962;-32
2022/11/10 11:44:40;;;;;;;;;;;;;;;12.76;76.34;101692.63;5055858;28;20118;-32
2022/11/10 11:47:12;;;;;;;;;;;;;;;12.81;76.42;101710.25;5055804;28;19913;-32
2022/11/10 11:49:50;;;;;;;;;;;;;;;12.83;75.91;101712.91;5054515;28;20024;-32
2022/11/10 11:52:26;;;;;;;;;;;;;;;12.87;75.77;101722.59;5046558;28;19917;-32
2022/11/10 11:55:03;;;;;;;;;;;;;;;12.93;76.26;101725.25;5033895;28;19920;-32
2022/11/10 11:57:37;;;;;;;;;;;;;;;12.99;76.47;101710.22;5034119;28;20432;-32
2022/11/10 12:00:09;;;;;;;;;;;;;;;13.01;75.97;101719.06;5034960;28;19924;-32
2022/11/10 12:02:53;;;;;;;;;;;;;;;13.07;75.87;101716.38;5033631;28;19916;-33
2022/11/10 12:05:24;;;;;;;;;;;;;;;13.10;75.69;101724.31;5044448;28;19923;-33
2022/11/10 12:08:01;;;;;;;;;;;;;;;13.16;75.42;101728.72;5054329;28;19917;-33
2022/11/10 12:10:44;;;;;;;;;;;;;;;13.20;75.64;101733.09;5036898;28;20293;-33
2022/11/10 12:13:10;;;;;;;;;;;;;;;13.24;75.13;101736.66;5054274;28;19919;-33
2022/11/10 12:15:41;;;;;;;;;;;;;;;13.29;74.95;101730.44;5054693;28;19917;-33
2022/11/10 12:18:12;;;;;;;;;;;;;;;13.33;74.64;101728.66;5054134;28;19963;-33
2022/11/10 12:20:44;;;;;;;;;;;;;;;13.38;74.69;101734.84;5046311;28;19916;-33
2022/11/10 12:23:09;;;;;;;;;;;;;;;13.41;74.41;101732.16;5054404;28;19948;-33
2022/11/10 12:25:46;;;;;;;;;;;;;;;13.47;74.95;101724.19;5054914;28;19959;-33
2022/11/10 12:28:22;;;;;;;;;;;;;;;13.49;73.95;101715.38;5054358;28;20003;-33
2022/11/10 12:30:48;;;;;;;;;;;;;;;13.53;73.90;101727.72;5035452;28;19956;-33
2022/11/10 12:33:26;;;;;;;;;;;;;;;13.58;74.26;101725.94;5035749;28;20010;-33
2022/11/10 12:35:51;;;;;;;;;;;;;;;13.67;74.72;101730.34;5049069;28;20375;-33
2022/11/10 12:38:20;;;;;;;;;;;;;;;13.70;74.36;101735.59;5034328;28;19920;-33
2022/11/10 12:40:49;;;;;;;;;;;;;;;13.74;74.05;101737.34;5048912;28;19913;-33
2022/11/10 12:43:17;;;;;;;;;;;;;;;13.77;73.88;101725.84;5054065;28;19917;-33
2022/11/10 12:46:02;;;;;;;;;;;;;;;13.82;73.80;101735.53;5035547;28;19913;-33
2022/11/10 12:48:29;;;;;;;;;;;;;;;13.90;73.51;101732.84;5053486;28;19917;-33
2022/11/10 12:51:10;;;;;;;;;;;;;;;13.89;73.36;101739.03;5036257;28;20002;-33
2022/11/10 12:53:39;;;;;;;;;;;;;;;13.96;73.51;101743.41;5036319;28;20371;-33
2022/11/10 12:56:06;;;;;;;;;;;;;;;14.01;73.11;101747.81;5054145;28;19913;-33
2022/11/10 12:58:31;;;;;;;;;;;;;;;14.03;72.90;101741.59;5052452;28;19999;-33